Funds performance table by strategy

help icon
fund name 1 mth 3 mth 12 mthsort icon ytd Inception Net assets Return Date
UBS Clarion Global Property Securities I 0% 5% 16% 16% 4% 195M 2014-07-31
GS US Focused Growth Equity I Acc 0% 4% 16% 3% 4% 58M 2014-07-31
DFA Global Equity I -2% 1% 16% 4% 8% - 2014-07-31
Marlborough Ethical B Inc 5% 8% 16% 5% 2% 6M 2013-01-31
Ofi MultiSelect US Equity I EUR 0% 6% 16% 5% 5% 97M 2014-07-31
Oppenheimer Transition 2015 Y 1% 5% 16% 10% 0% - 2012-09-30
ComStage EURO STOXX 50® NR ETF -3% 0% 16% 3% 2% 217M 2014-07-31
iShares EURO STOXX 50 (Inc) -3% 0% 16% 2% 0% 4295M 2014-07-31
iShares S&P 500 GBP Hedged -1% 2% 16% 5% 15% 95M 2014-07-31
AB SICAV Thematic Research S1 SGD -3% 2% 16% 2% 4% 105M 2014-07-31
Coronation Capital Plus B5 0% 4% 16% 7% 16% 4295M 2014-07-31
FlexShares Intl Qual Div Defensv ETF 0% 2% 16% 7% 11% - 2014-07-31
Nomura TOPIX ETF 2% 11% 16% 0% 1% 4295M 2014-07-31
Wynnefield Partners Small Cap Value LP -2% 5% 16% 8% 0% - 2014-07-31
BlackRock Muni Inc Qty Trust Common 0% 3% 16% 14% 6% - 2014-07-31
Macquarie Australian Enhanced Equities 4% 3% 16% 7% 10% 56M 2014-07-31
SEI Asset Allc Diversified Market Gr I 2% 7% 16% 3% 4% - 2011-02-28
Macquarie Aus Pure Indexed Equities 4% 3% 16% 7% 8% 1410M 2014-07-31
SSgA US Index Equity Fund I USD -1% 2% 16% 5% 6% 1998M 2014-07-31
Anima Fund - US Equity I 0% -3% 16% 10% 7% 43M 2012-11-30
Structura Smart Euro Equities I 0% 0% 16% 9% 7% - 2013-08-31
Rezco Prudential C 0% 4% 16% 7% 21% 403M 2014-07-31
Franklin Mutual Beacon R6 -1% 2% 16% 5% 18% - 2014-07-31
smartMOZY 6% 5% 16% 9% 5% 49M 2014-07-31
SPDR S&P/ASX 200 Fund 4% 3% 16% 7% 8% - 2014-07-31
Nikko Exchange Traded Index TOPIX 2% 11% 16% 0% 3% 4295M 2014-07-31
Gargoyle Hedged Value (Master) Fund 0% 2% 16% 6% 9% - 2014-07-31
Lucas Energy Total Return Partners II LP -1% 5% 16% 12% 2% - 2014-07-31
CFS FC W PSup-FirstChoice W Property Sec 0% -4% 16% 7% 0% 85M 2013-07-31
Dynamic Precious Metals Fund I 2% 18% 16% 44% 3% - 2014-07-31

All our data is licensed from Morningstar UK Ltd. Important legal information